createdAt,value
2023-02-25T00:02:07.690Z,94716.59
2023-02-25T00:04:37.137Z,94719.27
2023-02-25T00:07:05.893Z,94714.93
2023-02-25T00:09:34.677Z,94718.40
2023-02-25T00:12:04.894Z,94719.93
2023-02-25T00:14:34.038Z,94718.56
2023-02-25T00:17:02.921Z,94715.39
2023-02-25T00:19:31.693Z,94715.27
2023-02-25T00:22:00.879Z,94729.59
2023-02-25T00:24:29.638Z,94720.31
2023-02-25T00:26:58.216Z,94709.11
2023-02-25T00:29:26.835Z,94712.59
2023-02-25T00:31:55.670Z,94716.03
2023-02-25T00:34:24.682Z,94715.20
2023-02-25T00:36:54.608Z,94707.38
2023-02-25T00:39:24.912Z,94701.69
2023-02-25T00:41:54.297Z,94691.53
2023-02-25T00:44:23.012Z,94690.52
2023-02-25T00:46:51.711Z,94693.02
2023-02-25T00:49:31.792Z,94691.50
2023-02-25T00:51:50.731Z,94679.55
2023-02-25T00:54:19.539Z,94599.09
2023-02-25T00:56:49.930Z,94682.78
2023-02-25T00:59:18.700Z,94688.69
2023-02-25T01:01:50.930Z,94672.52
2023-02-25T01:04:19.849Z,94672.79
2023-02-25T01:06:48.574Z,94664.61
2023-02-25T01:09:19.986Z,94663.59
2023-02-25T01:11:49.668Z,94660.79
2023-02-25T01:14:23.978Z,94644.14
2023-02-25T01:16:55.684Z,94648.30
2023-02-25T01:19:26.582Z,94652.26
2023-02-25T01:22:00.084Z,94639.66
2023-02-25T01:24:33.684Z,94635.34
2023-02-25T01:27:04.634Z,94654.71
2023-02-25T01:29:39.569Z,94647.53
2023-02-25T01:32:14.486Z,94641.88
2023-02-25T01:34:43.731Z,94643.11
2023-02-25T01:37:12.556Z,94635.39
2023-02-25T01:39:42.099Z,94642.64
2023-02-25T01:42:16.598Z,94636.02
2023-02-25T01:45:14.850Z,94641.80
2023-02-25T01:47:43.874Z,94647.94
2023-02-25T01:50:13.056Z,94648.36
2023-02-25T01:52:43.045Z,94628.42
2023-02-25T01:55:12.520Z,94639.95
2023-02-25T01:57:41.362Z,94643.06
2023-02-25T02:00:16.943Z,94637.17
2023-02-25T02:02:51.424Z,94632.75
2023-02-25T02:05:20.533Z,94640.67
2023-02-25T02:07:51.080Z,94638.45
2023-02-25T02:10:19.806Z,94641.50
2023-02-25T02:12:49.448Z,94640.67
2023-02-25T02:15:18.186Z,94626.35
2023-02-25T02:18:01.274Z,94625.13
2023-02-25T02:20:47.715Z,94634.07
2023-02-25T02:23:25.138Z,94625.45
2023-02-25T02:26:25.923Z,94613.44
2023-02-25T02:29:18.639Z,94611.56
2023-02-25T02:31:53.280Z,94615.62
2023-02-25T02:34:37.059Z,94610.50
2023-02-25T02:37:23.626Z,94610.36
2023-02-25T02:40:14.784Z,94599.03
2023-02-25T02:42:52.322Z,94596.72
2023-02-25T02:45:56.089Z,94606.23
2023-02-25T02:48:33.277Z,94602.42
2023-02-25T02:51:05.200Z,94571.12
2023-02-25T02:53:48.728Z,94594.80
2023-02-25T02:56:19.808Z,94582.97
2023-02-25T02:58:53.150Z,94576.27
2023-02-25T03:01:24.984Z,94578.70
2023-02-25T03:04:02.741Z,94571.43
2023-02-25T03:06:34.379Z,94558.02
2023-02-25T03:09:08.870Z,94580.41
2023-02-25T03:11:37.657Z,94588.48
2023-02-25T03:14:08.035Z,94580.66
2023-02-25T03:16:48.377Z,94570.47
2023-02-25T03:19:19.973Z,94583.61
2023-02-25T03:21:51.508Z,94576.64
2023-02-25T03:24:27.756Z,94581.72
2023-02-25T03:26:59.641Z,94583.87
2023-02-25T03:29:29.221Z,94585.42
2023-02-25T03:32:10.604Z,94570.25
2023-02-25T03:34:42.296Z,94573.66
2023-02-25T03:37:16.673Z,94584.52
2023-02-25T03:39:48.373Z,94564.88
2023-02-25T03:42:19.982Z,94579.79
2023-02-25T03:44:51.622Z,94581.64
2023-02-25T03:47:21.993Z,94582.35
2023-02-25T03:50:02.381Z,94578.08
2023-02-25T03:52:31.791Z,94571.58
2023-02-25T03:55:00.877Z,94557.58
2023-02-25T03:57:38.870Z,94561.19
2023-02-25T04:00:15.257Z,94558.43
2023-02-25T04:02:45.944Z,94554.27
2023-02-25T04:05:16.158Z,94559.80
2023-02-25T04:07:45.074Z,94559.81
2023-02-25T04:10:15.678Z,94562.95
2023-02-25T04:12:44.383Z,94573.05
2023-02-25T04:15:15.547Z,94574.09
2023-02-25T04:17:46.364Z,94568.13
2023-02-25T04:20:20.028Z,94572.01
2023-02-25T04:22:48.715Z,94572.81
2023-02-25T04:25:17.426Z,94576.83
2023-02-25T04:27:46.277Z,94586.27
2023-02-25T04:30:15.613Z,94577.25
2023-02-25T04:32:44.713Z,94557.25
2023-02-25T04:35:13.980Z,94558.23
2023-02-25T04:37:43.591Z,94554.58
2023-02-25T04:40:18.195Z,94543.37
2023-02-25T04:42:47.550Z,94551.36
2023-02-25T04:45:16.953Z,94536.47
2023-02-25T04:47:46.108Z,94531.47
2023-02-25T04:50:14.807Z,94533.41
2023-02-25T04:52:43.451Z,94533.09
2023-02-25T04:55:12.431Z,94491.80
2023-02-25T04:57:42.636Z,94522.58
2023-02-25T05:00:16.407Z,94522.09
2023-02-25T05:02:46.299Z,94516.61
2023-02-25T05:05:15.797Z,94531.24
2023-02-25T05:07:45.001Z,94493.92
2023-02-25T05:10:17.398Z,94509.33
2023-02-25T05:12:45.989Z,94509.33
2023-02-25T05:15:16.340Z,94498.56
2023-02-25T05:17:45.213Z,94490.14
2023-02-25T05:20:14.162Z,94500.82
2023-02-25T05:22:43.613Z,94512.23
2023-02-25T05:25:12.721Z,94520.77
2023-02-25T05:27:41.489Z,94513.45
2023-02-25T05:30:11.158Z,94525.66
2023-02-25T05:32:40.147Z,94523.89
2023-02-25T05:35:09.884Z,94507.31
2023-02-25T05:37:40.195Z,94516.81
2023-02-25T05:40:09.788Z,94527.16
2023-02-25T05:42:38.552Z,94537.06
2023-02-25T05:45:09.135Z,94555.38
2023-02-25T05:47:37.790Z,94539.79
2023-02-25T05:50:14.411Z,94539.52
2023-02-25T05:52:43.143Z,94563.08
2023-02-25T05:55:12.297Z,94572.09
2023-02-25T05:57:41.108Z,94565.13
2023-02-25T06:00:12.497Z,94581.27
2023-02-25T06:02:41.765Z,94567.02
2023-02-25T06:05:10.509Z,94558.73
2023-02-25T06:07:39.136Z,94568.56
2023-02-25T06:10:08.549Z,94562.97
2023-02-25T06:12:38.356Z,94560.66
2023-02-25T06:15:10.138Z,94567.32
2023-02-25T06:17:38.796Z,94571.29
2023-02-25T06:20:09.509Z,94579.94
2023-02-25T06:22:38.360Z,94566.30
2023-02-25T06:25:07.906Z,94562.38
2023-02-25T06:27:36.485Z,94561.92
2023-02-25T06:30:05.738Z,94560.83
2023-02-25T06:32:34.527Z,94561.67
2023-02-25T06:35:06.580Z,94573.31
2023-02-25T06:37:38.149Z,94571.00
2023-02-25T06:40:08.006Z,94580.30
2023-02-25T06:42:36.647Z,94576.06
2023-02-25T06:45:05.779Z,94566.95
2023-02-25T06:47:34.397Z,94553.58
2023-02-25T06:50:06.164Z,94562.76
2023-02-25T06:52:34.882Z,94551.07
2023-02-25T06:55:05.436Z,94552.67
2023-02-25T06:57:35.319Z,94560.13
2023-02-25T07:00:05.618Z,94555.45
2023-02-25T07:02:39.570Z,94537.22
2023-02-25T07:05:09.015Z,94541.22
2023-02-25T07:07:39.306Z,94538.24
2023-02-25T07:10:11.906Z,94528.92
2023-02-25T07:12:42.057Z,94518.34
2023-02-25T07:15:11.600Z,94508.54
2023-02-25T07:17:41.992Z,94504.87
2023-02-25T07:20:11.874Z,94501.72
2023-02-25T07:22:44.533Z,94503.05
2023-02-25T07:25:13.872Z,94506.48
2023-02-25T07:27:46.386Z,94505.03
2023-02-25T07:30:17.474Z,94498.98
2023-02-25T07:32:46.437Z,94488.36
2023-02-25T07:35:17.650Z,94476.95
2023-02-25T07:37:46.416Z,94475.45
2023-02-25T07:40:17.090Z,94471.44
2023-02-25T07:42:46.356Z,94473.14
2023-02-25T07:45:15.495Z,94457.34
2023-02-25T07:47:44.191Z,94449.52
2023-02-25T07:50:14.516Z,94441.50
2023-02-25T07:52:46.079Z,94437.63
2023-02-25T07:55:14.729Z,94437.27
2023-02-25T07:57:43.501Z,94437.66
2023-02-25T08:00:17.725Z,94430.51
2023-02-25T08:02:48.744Z,94436.89
2023-02-25T08:05:19.231Z,94428.91
2023-02-25T08:07:47.902Z,94431.20
2023-02-25T08:10:16.658Z,94418.09
2023-02-25T08:12:45.434Z,94419.33
2023-02-25T08:15:33.901Z,94421.50
2023-02-25T08:18:01.926Z,94425.25
2023-02-25T08:20:32.291Z,94419.33
2023-02-25T08:23:01.072Z,94417.47
2023-02-25T08:25:29.756Z,94409.00
2023-02-25T08:27:58.442Z,94412.39
2023-02-25T08:30:31.446Z,94411.77
2023-02-25T08:33:00.131Z,94412.24
2023-02-25T08:35:28.800Z,94417.27
2023-02-25T08:37:57.341Z,94415.67
2023-02-25T08:40:28.644Z,94412.22
2023-02-25T08:42:57.352Z,94399.21
2023-02-25T08:45:29.120Z,94391.48
2023-02-25T08:47:57.646Z,94393.30
2023-02-25T08:50:26.587Z,94392.38
2023-02-25T08:52:55.182Z,94380.09
2023-02-25T08:55:24.923Z,94371.11
2023-02-25T08:57:54.690Z,94379.66
2023-02-25T09:00:23.810Z,94383.06
2023-02-25T09:02:52.447Z,94377.20
2023-02-25T09:05:21.147Z,94374.74
2023-02-25T09:07:49.660Z,94381.59
2023-02-25T09:10:19.160Z,94386.80
2023-02-25T09:12:49.817Z,94390.19
2023-02-25T09:15:18.785Z,94382.08
2023-02-25T09:17:47.402Z,94376.92
2023-02-25T09:20:17.693Z,94365.01
2023-02-25T09:22:46.444Z,94361.94
2023-02-25T09:25:17.755Z,94367.80
2023-02-25T09:27:46.417Z,94362.95
2023-02-25T09:30:15.635Z,94353.58
2023-02-25T09:32:45.597Z,94358.05
2023-02-25T09:35:14.352Z,94358.34
2023-02-25T09:37:43.042Z,94354.86
2023-02-25T09:40:15.579Z,94347.55
2023-02-25T09:42:47.209Z,94308.53
2023-02-25T09:45:20.036Z,94321.96
2023-02-25T09:48:00.825Z,94325.93
2023-02-25T09:50:35.876Z,94311.51
2023-02-25T09:53:19.762Z,94295.64
2023-02-25T09:55:51.868Z,94310.70
2023-02-25T09:58:26.233Z,94297.14
2023-02-25T10:01:01.882Z,94313.59
2023-02-25T10:03:42.623Z,94304.44
2023-02-25T10:06:30.688Z,94303.16
2023-02-25T10:09:06.255Z,94304.39
2023-02-25T10:11:42.951Z,94306.28
2023-02-25T10:14:20.768Z,94299.34
2023-02-25T10:17:07.362Z,94278.16
2023-02-25T10:19:56.914Z,94279.31
2023-02-25T10:22:46.774Z,94275.05
2023-02-25T10:25:21.179Z,94210.73
2023-02-25T10:28:01.846Z,94269.77
2023-02-25T10:30:39.418Z,94239.26
2023-02-25T10:33:13.770Z,94251.74
2023-02-25T10:35:43.109Z,94231.43
2023-02-25T10:38:12.892Z,94234.42
2023-02-25T10:40:42.355Z,94232.59
2023-02-25T10:43:26.166Z,94244.36
2023-02-25T10:46:11.815Z,94209.78
2023-02-25T10:48:43.350Z,94229.59
2023-02-25T10:51:15.155Z,94225.45
2023-02-25T10:53:57.119Z,94223.20
2023-02-25T10:56:28.138Z,94203.98
2023-02-25T10:59:05.769Z,94213.34
2023-02-25T11:01:43.247Z,94205.00
2023-02-25T11:04:15.107Z,94210.48
2023-02-25T11:06:45.117Z,94206.53
2023-02-25T11:09:26.833Z,94200.77
2023-02-25T11:11:58.418Z,94189.18
2023-02-25T11:14:32.070Z,94186.41
2023-02-25T11:17:09.395Z,94198.19
2023-02-25T11:19:41.294Z,94184.80
2023-02-25T11:22:12.997Z,94174.62
2023-02-25T11:24:46.295Z,94186.16
2023-02-25T11:27:33.449Z,94170.81
2023-02-25T11:30:06.286Z,94155.31
2023-02-25T11:32:41.493Z,94156.32
2023-02-25T11:37:48.912Z,94150.62
2023-02-25T11:40:34.360Z,94157.34
2023-02-25T11:46:04.961Z,94147.03
2023-02-25T11:48:50.546Z,94142.86
2023-02-25T11:51:31.142Z,94151.91
2023-02-25T11:54:21.930Z,94090.73
2023-02-25T11:57:02.879Z,94153.03
2023-02-25T11:59:55.798Z,94154.05
2023-02-25T12:02:33.753Z,94146.83
2023-02-25T12:05:37.367Z,94160.08
2023-02-25T12:08:25.527Z,94166.79
2023-02-25T12:15:27.157Z,94170.80
2023-02-25T12:18:16.909Z,94174.92
2023-02-25T12:21:05.620Z,94153.96
2023-02-25T12:24:10.838Z,94165.03
2023-02-25T12:27:07.242Z,94162.28
2023-02-25T12:29:49.497Z,94166.70
2023-02-25T12:32:36.431Z,94156.75
2023-02-25T12:35:23.485Z,94141.80
2023-02-25T12:38:31.780Z,94134.26
2023-02-25T12:41:31.948Z,94111.61
2023-02-25T12:44:39.006Z,94109.30
2023-02-25T12:47:44.035Z,94125.42
2023-02-25T12:50:35.753Z,94106.44
2023-02-25T12:53:17.397Z,94100.08
2023-02-25T12:56:17.237Z,94092.94
2023-02-25T12:59:50.778Z,94078.91
2023-02-25T13:06:38.153Z,94085.33
2023-02-25T13:09:31.974Z,94096.83
2023-02-25T13:12:23.467Z,94090.22
2023-02-25T13:15:09.240Z,94097.86
2023-02-25T13:17:55.831Z,94091.02
2023-02-25T13:20:50.123Z,94093.95
2023-02-25T13:27:01.950Z,94069.83
2023-02-25T13:29:50.062Z,94070.99
2023-02-25T13:32:26.528Z,94067.80
2023-02-25T13:35:06.789Z,94081.20
2023-02-25T13:37:44.514Z,94072.87
2023-02-25T13:40:26.670Z,94066.25
2023-02-25T13:43:33.823Z,94047.63
2023-02-25T13:49:55.048Z,94064.78
2023-02-25T13:52:50.774Z,94051.34
2023-02-25T13:55:40.347Z,94051.23
2023-02-25T13:58:39.057Z,94039.98
2023-02-25T14:01:27.429Z,94042.72
2023-02-25T14:04:05.051Z,94042.20
2023-02-25T14:06:42.464Z,94041.13
2023-02-25T14:09:29.200Z,94032.56
2023-02-25T14:12:13.002Z,94030.31
2023-02-25T14:14:45.847Z,94037.07
2023-02-25T14:17:40.254Z,94021.59
2023-02-25T14:30:51.303Z,94025.45
2023-02-25T14:33:50.706Z,94024.34
2023-02-25T14:36:56.010Z,94027.29
2023-02-25T14:39:40.362Z,94027.42
2023-02-25T14:42:18.522Z,94042.94
2023-02-25T14:45:01.846Z,94032.80
2023-02-25T14:47:33.420Z,94046.73
2023-02-25T14:50:14.105Z,94040.54
2023-02-25T14:52:57.802Z,94050.25
2023-02-25T14:55:32.369Z,94040.10
2023-02-25T14:58:28.196Z,94061.02
2023-02-25T15:01:12.212Z,94060.98
2023-02-25T15:04:02.534Z,94079.52
2023-02-25T15:06:56.866Z,94075.30
2023-02-25T15:16:08.830Z,94095.74
2023-02-25T15:19:05.329Z,94100.58
2023-02-25T15:21:46.600Z,94088.73
2023-02-25T15:24:40.628Z,94095.63
2023-02-25T15:27:35.116Z,94091.53
2023-02-25T15:30:09.082Z,94089.95
2023-02-25T15:32:55.866Z,94099.37
2023-02-25T15:35:27.472Z,94085.77
2023-02-25T15:37:59.169Z,94095.50
2023-02-25T15:40:36.650Z,94090.31
2023-02-25T15:43:18.057Z,94085.87
2023-02-25T15:45:54.630Z,94089.81
2023-02-25T15:48:34.730Z,94085.11
2023-02-25T15:51:08.601Z,94095.81
2023-02-25T15:53:40.311Z,94093.46
2023-02-25T15:59:58.514Z,94101.19
2023-02-25T16:02:36.022Z,94103.67
2023-02-25T16:05:12.120Z,94096.14
2023-02-25T16:07:43.833Z,94101.02
2023-02-25T16:10:24.722Z,94098.14
2023-02-25T16:12:57.468Z,94091.27
2023-02-25T16:16:03.450Z,94085.91
2023-02-25T16:18:35.062Z,94084.99
2023-02-25T16:21:09.319Z,94099.16
2023-02-25T16:23:41.386Z,94098.89
2023-02-25T16:26:24.756Z,94096.80
2023-02-25T16:29:05.209Z,94102.84
2023-02-25T16:31:58.747Z,94059.20
2023-02-25T16:34:39.792Z,94098.07
2023-02-25T16:37:17.502Z,94106.86
2023-02-25T16:39:49.270Z,94106.16
2023-02-25T16:42:24.704Z,94109.80
2023-02-25T16:45:02.913Z,94109.27
2023-02-25T16:47:38.108Z,94118.88
2023-02-25T16:50:12.884Z,94109.95
2023-02-25T16:52:50.536Z,94123.19
2023-02-25T16:59:11.032Z,94128.95
2023-02-25T17:01:53.100Z,94135.34
2023-02-25T17:04:26.282Z,94128.48
2023-02-25T17:07:18.087Z,94134.50
2023-02-25T17:10:15.339Z,94139.37
2023-02-25T17:16:34.272Z,94133.84
2023-02-25T17:23:00.573Z,94124.05
2023-02-25T17:25:32.175Z,94133.69
2023-02-25T17:28:04.368Z,94136.86
2023-02-25T17:30:52.828Z,94138.52
2023-02-25T17:33:30.622Z,94146.30
2023-02-25T17:36:08.295Z,94146.95
2023-02-25T17:38:39.223Z,94145.23
2023-02-25T17:41:08.372Z,94148.16
2023-02-25T17:43:40.740Z,94133.70
2023-02-25T17:46:39.654Z,94056.03
2023-02-25T17:49:24.129Z,94138.97
2023-02-25T17:52:01.166Z,94113.75
2023-02-25T17:54:36.060Z,94121.45
2023-02-25T17:57:13.458Z,94109.20
2023-02-25T17:59:52.148Z,94103.67
2023-02-25T18:02:48.824Z,94116.73
2023-02-25T18:05:23.619Z,94113.30
2023-02-25T18:08:10.428Z,94097.16
2023-02-25T18:10:41.980Z,94096.96
2023-02-25T18:13:13.570Z,94097.48
2023-02-25T18:15:48.630Z,94088.91
2023-02-25T18:18:23.552Z,94094.28
2023-02-25T18:20:55.196Z,94101.83
2023-02-25T18:23:27.981Z,94089.27
2023-02-25T18:26:23.332Z,94099.53
2023-02-25T18:28:54.598Z,94098.77
2023-02-25T18:31:27.572Z,94095.34
2023-02-25T18:33:56.655Z,94098.11
2023-02-25T18:36:35.164Z,94106.47
2023-02-25T18:45:18.534Z,94108.69
2023-02-25T18:47:47.364Z,94103.23
2023-02-25T18:50:16.798Z,94109.30
2023-02-25T19:02:10.379Z,94110.95
2023-02-25T19:04:43.726Z,94108.91
2023-02-25T19:07:29.052Z,94100.75
2023-02-25T19:10:03.539Z,94101.34
2023-02-25T19:12:36.698Z,94098.58
2023-02-25T19:15:13.718Z,94104.33
2023-02-25T19:17:49.522Z,94101.26
2023-02-25T19:20:26.211Z,94105.86
2023-02-25T19:23:39.360Z,94098.36
2023-02-25T19:32:34.005Z,94107.09
2023-02-25T19:35:07.353Z,94094.60
2023-02-25T19:38:02.322Z,94099.78
2023-02-25T19:40:33.910Z,94113.29
2023-02-25T19:43:04.491Z,94118.73
2023-02-25T19:45:37.608Z,94113.74
2023-02-25T19:48:09.368Z,94113.09
2023-02-25T19:50:39.886Z,94101.18
2023-02-25T19:53:13.065Z,94108.69
2023-02-25T19:55:44.732Z,94060.19
2023-02-25T19:58:13.681Z,94119.33
2023-02-25T20:00:44.154Z,94106.52
2023-02-25T20:03:16.992Z,94111.55
2023-02-25T20:05:45.860Z,94099.41
2023-02-25T20:08:14.429Z,94094.28
2023-02-25T20:10:45.778Z,94073.58
2023-02-25T20:16:40.998Z,94097.97
2023-02-25T20:19:33.448Z,94102.47
2023-02-25T20:22:04.666Z,94097.52
2023-02-25T20:25:17.863Z,94094.37
2023-02-25T20:27:34.578Z,94085.91
2023-02-25T20:30:05.000Z,94091.95
2023-02-25T20:32:46.865Z,94091.27
2023-02-25T20:36:08.578Z,94100.53
2023-02-25T20:38:17.343Z,94102.67
2023-02-25T20:43:50.705Z,94097.28
2023-02-25T20:46:30.109Z,94097.61
2023-02-25T20:48:58.936Z,94095.28
2023-02-25T20:51:29.253Z,94107.19
2023-02-25T20:53:58.128Z,94105.46
2023-02-25T20:56:30.073Z,94110.95
2023-02-25T20:58:59.250Z,94104.25
2023-02-25T21:04:16.102Z,94106.68
2023-02-25T21:06:44.681Z,94106.49
2023-02-25T21:09:13.588Z,94097.86
2023-02-25T21:11:59.630Z,94114.23
2023-02-25T21:15:09.211Z,94107.64
2023-02-25T21:17:35.161Z,94107.14
2023-02-25T21:23:24.453Z,94099.49
2023-02-25T21:26:27.492Z,94088.97
2023-02-25T21:29:34.166Z,94092.47
2023-02-25T21:32:05.107Z,94089.09
2023-02-25T21:38:56.829Z,94080.49
2023-02-25T21:41:18.280Z,94087.99
2023-02-25T21:59:14.385Z,94081.95
2023-02-25T22:01:44.640Z,94098.91
2023-02-25T22:04:13.487Z,94094.89
2023-02-25T22:06:43.273Z,94084.56
2023-02-25T22:09:11.961Z,94096.66
2023-02-25T22:11:40.659Z,94099.52
2023-02-25T22:14:10.744Z,94096.50
2023-02-25T22:16:40.499Z,94093.85
2023-02-25T22:19:09.228Z,94067.15
2023-02-25T22:21:39.641Z,94112.77
2023-02-25T22:24:08.440Z,94127.01
2023-02-25T22:26:38.084Z,94130.74
2023-02-25T22:29:09.169Z,94134.73
2023-02-25T22:31:41.392Z,94128.28
2023-02-25T22:34:12.171Z,94127.03
2023-02-25T22:36:40.828Z,94131.01
2023-02-25T22:39:10.301Z,94136.08
2023-02-25T22:41:40.660Z,94143.16
2023-02-25T22:44:09.418Z,94147.98
2023-02-25T22:46:41.242Z,94150.73
2023-02-25T22:49:11.923Z,94135.20
2023-02-25T22:51:43.433Z,94151.73
2023-02-25T22:54:14.697Z,94142.75
2023-02-25T22:56:44.094Z,94140.95
2023-02-25T22:59:13.951Z,94140.68
2023-02-25T23:01:42.597Z,94157.68
2023-02-25T23:04:14.172Z,94159.48
2023-02-25T23:06:45.430Z,94153.55
2023-02-25T23:09:19.217Z,94155.28
2023-02-25T23:11:47.834Z,94154.30
2023-02-25T23:14:16.426Z,94152.32
2023-02-25T23:16:48.903Z,94160.98
2023-02-25T23:19:19.679Z,94173.70
2023-02-25T23:21:48.418Z,94173.84
2023-02-25T23:24:18.955Z,94170.22
2023-02-25T23:26:50.808Z,94181.16
2023-02-25T23:29:19.602Z,94195.91
2023-02-25T23:31:50.316Z,94184.84
2023-02-25T23:34:23.444Z,94199.73
2023-02-25T23:36:54.143Z,94186.02
2023-02-25T23:39:22.850Z,94177.38
2023-02-25T23:41:51.714Z,94175.70
2023-02-25T23:44:20.982Z,94191.44
2023-02-25T23:46:49.599Z,94175.05
2023-02-25T23:49:18.549Z,94180.23
2023-02-25T23:51:48.964Z,94174.38
2023-02-25T23:54:20.501Z,94157.91
2023-02-25T23:56:52.285Z,94181.61
2023-02-25T23:59:23.605Z,94173.84
